sensor_id;sensor_type;location;lat;lon;timestamp;pressure;altitude;pressure_sealevel;temperature;humidity
8280;BME280;8335;42.646;23.380;2024-02-04T00:02:16;143412.34;;;7.35;78.75
8280;BME280;8335;42.646;23.380;2024-02-04T00:04:44;143418.56;;;7.38;78.79
8280;BME280;8335;42.646;23.380;2024-02-04T00:07:11;143406.16;;;7.33;78.66
8280;BME280;8335;42.646;23.380;2024-02-04T00:09:38;143433.44;;;7.44;78.59
8280;BME280;8335;42.646;23.380;2024-02-04T00:12:05;143428.47;;;7.42;78.52
8280;BME280;8335;42.646;23.380;2024-02-04T00:14:31;143443.34;;;7.48;78.16
8280;BME280;8335;42.646;23.380;2024-02-04T00:16:58;143439.63;;;7.47;79.10
8280;BME280;8335;42.646;23.380;2024-02-04T00:19:25;143440.88;;;7.47;78.62
8280;BME280;8335;42.646;23.380;2024-02-04T00:21:53;143438.41;;;7.46;78.55
8280;BME280;8335;42.646;23.380;2024-02-04T00:24:20;143426.00;;;7.41;78.63
8280;BME280;8335;42.646;23.380;2024-02-04T00:26:47;143429.69;;;7.42;79.50
8280;BME280;8335;42.646;23.380;2024-02-04T00:29:15;143416.09;;;7.37;78.83
8280;BME280;8335;42.646;23.380;2024-02-04T00:31:41;143406.16;;;7.33;78.74
8280;BME280;8335;42.646;23.380;2024-02-04T00:34:08;143387.56;;;7.25;79.48
8280;BME280;8335;42.646;23.380;2024-02-04T00:36:35;143407.41;;;7.33;79.26
8280;BME280;8335;42.646;23.380;2024-02-04T00:39:03;143397.50;;;7.29;79.82
8280;BME280;8335;42.646;23.380;2024-02-04T00:41:30;143397.50;;;7.29;79.76
8280;BME280;8335;42.646;23.380;2024-02-04T00:43:57;143414.84;;;7.36;79.42
8280;BME280;8335;42.646;23.380;2024-02-04T00:46:23;143423.50;;;7.40;79.28
8280;BME280;8335;42.646;23.380;2024-02-04T00:48:50;143430.97;;;7.43;79.11
8280;BME280;8335;42.646;23.380;2024-02-04T00:51:17;143429.69;;;7.42;78.93
8280;BME280;8335;42.646;23.380;2024-02-04T00:53:45;143434.69;;;7.44;78.94
8280;BME280;8335;42.646;23.380;2024-02-04T00:56:13;143453.28;;;7.52;79.50
8280;BME280;8335;42.646;23.380;2024-02-04T00:58:40;143461.94;;;7.56;79.25
8280;BME280;8335;42.646;23.380;2024-02-04T01:01:06;143461.94;;;7.56;80.08
8280;BME280;8335;42.646;23.380;2024-02-04T01:03:33;143469.41;;;7.59;79.32
8280;BME280;8335;42.646;23.380;2024-02-04T01:06:00;143471.88;;;7.60;79.75
8280;BME280;8335;42.646;23.380;2024-02-04T01:08:26;143469.41;;;7.59;79.65
8280;BME280;8335;42.646;23.380;2024-02-04T01:10:53;143471.88;;;7.60;79.69
8280;BME280;8335;42.646;23.380;2024-02-04T01:13:21;143468.19;;;7.58;80.53
8280;BME280;8335;42.646;23.380;2024-02-04T01:15:48;143479.31;;;7.63;80.00
8280;BME280;8335;42.646;23.380;2024-02-04T01:18:15;143475.59;;;7.61;80.02
8280;BME280;8335;42.646;23.380;2024-02-04T01:20:41;143463.19;;;7.56;80.97
8280;BME280;8335;42.646;23.380;2024-02-04T01:23:08;143457.00;;;7.54;81.35
8280;BME280;8335;42.646;23.380;2024-02-04T01:25:35;143458.22;;;7.54;82.16
8280;BME280;8335;42.646;23.380;2024-02-04T01:28:02;143465.69;;;7.57;81.59
8280;BME280;8335;42.646;23.380;2024-02-04T01:30:30;143464.41;;;7.57;82.01
8280;BME280;8335;42.646;23.380;2024-02-04T01:32:57;143459.47;;;7.55;82.44
8280;BME280;8335;42.646;23.380;2024-02-04T01:35:23;143459.47;;;7.55;83.00
8280;BME280;8335;42.646;23.380;2024-02-04T01:37:50;143461.94;;;7.56;82.35
8280;BME280;8335;42.646;23.380;2024-02-04T01:40:17;143475.59;;;7.61;82.48
8280;BME280;8335;42.646;23.380;2024-02-04T01:42:44;143465.69;;;7.57;82.77
8280;BME280;8335;42.646;23.380;2024-02-04T01:45:10;143466.94;;;7.58;82.33
8280;BME280;8335;42.646;23.380;2024-02-04T01:47:39;143461.94;;;7.56;83.26
8280;BME280;8335;42.646;23.380;2024-02-04T01:50:06;143455.75;;;7.53;82.58
8280;BME280;8335;42.646;23.380;2024-02-04T01:52:36;143468.19;;;7.58;82.77
8280;BME280;8335;42.646;23.380;2024-02-04T01:55:05;143461.94;;;7.56;83.23
8280;BME280;8335;42.646;23.380;2024-02-04T01:57:32;143453.28;;;7.52;83.80
8280;BME280;8335;42.646;23.380;2024-02-04T02:00:00;143471.88;;;7.60;83.33
8280;BME280;8335;42.646;23.380;2024-02-04T02:02:27;143481.78;;;7.64;83.25
8280;BME280;8335;42.646;23.380;2024-02-04T02:04:56;143502.91;;;7.72;83.00
8280;BME280;8335;42.646;23.380;2024-02-04T02:07:23;143506.59;;;7.74;82.90
8280;BME280;8335;42.646;23.380;2024-02-04T02:09:52;143511.56;;;7.76;83.84
8280;BME280;8335;42.646;23.380;2024-02-04T02:12:24;143521.50;;;7.80;83.11
8280;BME280;8335;42.646;23.380;2024-02-04T02:14:56;143522.72;;;7.81;83.24
8280;BME280;8335;42.646;23.380;2024-02-04T02:17:29;143536.38;;;7.86;82.68
8280;BME280;8335;42.646;23.380;2024-02-04T02:20:01;143546.28;;;7.90;83.19
8280;BME280;8335;42.646;23.380;2024-02-04T02:22:47;143556.22;;;7.94;83.21
8280;BME280;8335;42.646;23.380;2024-02-04T02:25:16;143577.31;;;8.03;82.91
8280;BME280;8335;42.646;23.380;2024-02-04T02:27:47;143581.00;;;8.05;82.03
8280;BME280;8335;42.646;23.380;2024-02-04T02:30:14;143562.41;;;7.97;82.49
8280;BME280;8335;42.646;23.380;2024-02-04T02:32:42;143564.88;;;7.98;81.95
8280;BME280;8335;42.646;23.380;2024-02-04T02:35:09;143582.25;;;8.05;81.96
8280;BME280;8335;42.646;23.380;2024-02-04T02:37:41;143585.97;;;8.07;81.77
8280;BME280;8335;42.646;23.380;2024-02-04T02:40:16;143600.84;;;8.13;81.95
8280;BME280;8335;42.646;23.380;2024-02-04T02:42:48;143597.16;;;8.11;81.81
8280;BME280;8335;42.646;23.380;2024-02-04T02:45:19;143600.84;;;8.13;81.75
8280;BME280;8335;42.646;23.380;2024-02-04T02:47:48;143559.94;;;7.96;80.48
8280;BME280;8335;42.646;23.380;2024-02-04T02:50:16;143625.69;;;8.23;80.81
8280;BME280;8335;42.646;23.380;2024-02-04T02:52:43;143621.94;;;8.21;81.25
8280;BME280;8335;42.646;23.380;2024-02-04T02:55:09;143574.81;;;8.02;80.44
8280;BME280;8335;42.646;23.380;2024-02-04T02:57:37;143639.31;;;8.28;79.83
8280;BME280;8335;42.646;23.380;2024-02-04T03:00:05;143660.50;;;8.37;79.56
8280;BME280;8335;42.646;23.380;2024-02-04T03:02:33;143659.25;;;8.37;79.80
8280;BME280;8335;42.646;23.380;2024-02-04T03:04:59;143664.19;;;8.39;79.86
8280;BME280;8335;42.646;23.380;2024-02-04T03:07:26;143664.19;;;8.39;79.41
8280;BME280;8335;42.646;23.380;2024-02-04T03:09:53;143654.22;;;8.35;79.33
8280;BME280;8335;42.646;23.380;2024-02-04T03:12:20;143651.72;;;8.34;79.99
8280;BME280;8335;42.646;23.380;2024-02-04T03:14:48;143671.63;;;8.42;79.09
8280;BME280;8335;42.646;23.380;2024-02-04T03:17:15;143685.28;;;8.47;79.46
8280;BME280;8335;42.646;23.380;2024-02-04T03:19:46;143690.25;;;8.49;78.92
8280;BME280;8335;42.646;23.380;2024-02-04T03:22:12;143700.19;;;8.53;79.21
8280;BME280;8335;42.646;23.380;2024-02-04T03:24:39;143703.91;;;8.55;78.96
8280;BME280;8335;42.646;23.380;2024-02-04T03:27:06;143706.38;;;8.56;78.73
8280;BME280;8335;42.646;23.380;2024-02-04T03:29:32;143705.13;;;8.55;79.02
8280;BME280;8335;42.646;23.380;2024-02-04T03:32:01;143710.13;;;8.58;78.76
8280;BME280;8335;42.646;23.380;2024-02-04T03:34:28;143710.13;;;8.58;78.70
8280;BME280;8335;42.646;23.380;2024-02-04T03:36:55;143713.84;;;8.59;79.26
8280;BME280;8335;42.646;23.380;2024-02-04T03:39:21;143717.56;;;8.61;78.53
8280;BME280;8335;42.646;23.380;2024-02-04T03:41:48;143717.56;;;8.61;79.18
8280;BME280;8335;42.646;23.380;2024-02-04T03:44:15;143700.19;;;8.53;79.27
8280;BME280;8335;42.646;23.380;2024-02-04T03:46:41;143701.41;;;8.54;79.36
8280;BME280;8335;42.646;23.380;2024-02-04T03:49:10;143701.41;;;8.54;79.43
8280;BME280;8335;42.646;23.380;2024-02-04T03:51:36;143692.75;;;8.50;79.93
8280;BME280;8335;42.646;23.380;2024-02-04T03:54:03;143701.41;;;8.54;80.22
8280;BME280;8335;42.646;23.380;2024-02-04T03:56:30;143711.38;;;8.58;80.21
8280;BME280;8335;42.646;23.380;2024-02-04T03:58:56;143703.91;;;8.55;80.73
8280;BME280;8335;42.646;23.380;2024-02-04T04:01:23;143692.75;;;8.50;80.69
8280;BME280;8335;42.646;23.380;2024-02-04T04:03:50;143712.59;;;8.59;80.75
8280;BME280;8335;42.646;23.380;2024-02-04T04:06:18;143710.13;;;8.58;81.28
8280;BME280;8335;42.646;23.380;2024-02-04T04:08:45;143692.75;;;8.50;81.42
8280;BME280;8335;42.646;23.380;2024-02-04T04:11:11;143679.09;;;8.45;81.75
8280;BME280;8335;42.646;23.380;2024-02-04T04:13:38;143677.84;;;8.44;82.34
8280;BME280;8335;42.646;23.380;2024-02-04T04:16:05;143674.09;;;8.43;82.25
8280;BME280;8335;42.646;23.380;2024-02-04T04:18:32;143677.84;;;8.44;82.37
8280;BME280;8335;42.646;23.380;2024-02-04T04:20:59;143679.09;;;8.45;82.25
8280;BME280;8335;42.646;23.380;2024-02-04T04:23:27;143679.09;;;8.45;82.66
8280;BME280;8335;42.646;23.380;2024-02-04T04:25:53;143660.50;;;8.37;83.75
8280;BME280;8335;42.646;23.380;2024-02-04T04:28:20;143669.16;;;8.41;83.49
8280;BME280;8335;42.646;23.380;2024-02-04T04:30:47;143648.03;;;8.32;83.80
8280;BME280;8335;42.646;23.380;2024-02-04T04:33:13;143640.59;;;8.29;83.88
8280;BME280;8335;42.646;23.380;2024-02-04T04:35:40;143655.50;;;8.35;83.73
8280;BME280;8335;42.646;23.380;2024-02-04T04:38:27;143676.63;;;8.44;83.22
8280;BME280;8335;42.646;23.380;2024-02-04T04:40:54;143680.34;;;8.45;83.44
8280;BME280;8335;42.646;23.380;2024-02-04T04:43:20;143681.56;;;8.46;83.98
8280;BME280;8335;42.646;23.380;2024-02-04T04:45:47;143701.41;;;8.54;83.68
8280;BME280;8335;42.646;23.380;2024-02-04T04:48:14;143703.91;;;8.55;83.60
8280;BME280;8335;42.646;23.380;2024-02-04T04:50:40;143702.66;;;8.54;83.70
8280;BME280;8335;42.646;23.380;2024-02-04T04:53:07;143721.28;;;8.62;83.99
8280;BME280;8335;42.646;23.380;2024-02-04T04:55:35;143734.94;;;8.68;83.48
8280;BME280;8335;42.646;23.380;2024-02-04T04:58:02;143742.38;;;8.71;83.20
8280;BME280;8335;42.646;23.380;2024-02-04T05:00:29;143754.78;;;8.76;83.23
8280;BME280;8335;42.646;23.380;2024-02-04T05:02:55;143752.31;;;8.75;83.33
8280;BME280;8335;42.646;23.380;2024-02-04T05:05:22;143736.16;;;8.68;83.43
8280;BME280;8335;42.646;23.380;2024-02-04T05:07:49;143737.41;;;8.69;82.70
8280;BME280;8335;42.646;23.380;2024-02-04T05:10:15;143727.50;;;8.65;82.40
8280;BME280;8335;42.646;23.380;2024-02-04T05:12:43;143724.97;;;8.64;82.47
8280;BME280;8335;42.646;23.380;2024-02-04T05:15:10;143727.50;;;8.65;81.52
8280;BME280;8335;42.646;23.380;2024-02-04T05:17:37;143710.13;;;8.58;81.67
8280;BME280;8335;42.646;23.380;2024-02-04T05:20:04;143711.38;;;8.58;81.74
8280;BME280;8335;42.646;23.380;2024-02-04T05:22:33;143686.53;;;8.48;82.50
8280;BME280;8335;42.646;23.380;2024-02-04T05:24:59;143692.75;;;8.50;82.26
8280;BME280;8335;42.646;23.380;2024-02-04T05:27:26;143706.38;;;8.56;81.84
8280;BME280;8335;42.646;23.380;2024-02-04T05:29:54;143701.41;;;8.54;81.76
8280;BME280;8335;42.646;23.380;2024-02-04T05:32:21;143718.81;;;8.61;81.55
8280;BME280;8335;42.646;23.380;2024-02-04T05:34:48;143730.00;;;8.66;81.47
8280;BME280;8335;42.646;23.380;2024-02-04T05:37:14;143716.31;;;8.60;81.10
8280;BME280;8335;42.646;23.380;2024-02-04T05:39:41;143715.09;;;8.60;81.34
8280;BME280;8335;42.646;23.380;2024-02-04T05:42:08;143720.03;;;8.62;81.19
8280;BME280;8335;42.646;23.380;2024-02-04T05:44:34;143723.75;;;8.63;81.13
8280;BME280;8335;42.646;23.380;2024-02-04T05:47:03;143722.50;;;8.63;80.36
8280;BME280;8335;42.646;23.380;2024-02-04T05:49:29;143746.13;;;8.72;80.24
8280;BME280;8335;42.646;23.380;2024-02-04T05:51:56;143749.84;;;8.74;79.57
8280;BME280;8335;42.646;23.380;2024-02-04T05:54:23;143765.97;;;8.80;78.91
8280;BME280;8335;42.646;23.380;2024-02-04T05:56:49;143770.94;;;8.82;78.51
8280;BME280;8335;42.646;23.380;2024-02-04T05:59:16;143759.75;;;8.78;78.66
8280;BME280;8335;42.646;23.380;2024-02-04T06:01:43;143757.25;;;8.77;78.56
8280;BME280;8335;42.646;23.380;2024-02-04T06:04:11;143742.38;;;8.71;78.29
8280;BME280;8335;42.646;23.380;2024-02-04T06:06:38;143748.59;;;8.73;77.98
8280;BME280;8335;42.646;23.380;2024-02-04T06:09:05;143757.25;;;8.77;77.98
8280;BME280;8335;42.646;23.380;2024-02-04T06:11:31;143751.06;;;8.74;77.78
8280;BME280;8335;42.646;23.380;2024-02-04T06:13:58;143764.75;;;8.80;77.79
8280;BME280;8335;42.646;23.380;2024-02-04T06:16:25;143772.16;;;8.83;77.51
8280;BME280;8335;42.646;23.380;2024-02-04T06:18:52;143767.22;;;8.81;77.76
8280;BME280;8335;42.646;23.380;2024-02-04T06:21:22;143780.88;;;8.87;77.64
8280;BME280;8335;42.646;23.380;2024-02-04T06:23:49;143773.41;;;8.83;78.14
8280;BME280;8335;42.646;23.380;2024-02-04T06:26:15;143793.25;;;8.92;78.02
8280;BME280;8335;42.646;23.380;2024-02-04T06:28:42;143790.78;;;8.91;77.57
8280;BME280;8335;42.646;23.380;2024-02-04T06:31:11;143741.13;;;8.70;77.90
8280;BME280;8335;42.646;23.380;2024-02-04T06:33:38;143797.03;;;8.93;77.83
8280;BME280;8335;42.646;23.380;2024-02-04T06:36:08;143768.47;;;8.81;77.55
8280;BME280;8335;42.646;23.380;2024-02-04T06:38:37;143790.78;;;8.91;77.96
8280;BME280;8335;42.646;23.380;2024-02-04T06:41:04;143792.03;;;8.91;77.69
8280;BME280;8335;42.646;23.380;2024-02-04T06:43:30;143805.69;;;8.97;77.22
8280;BME280;8335;42.646;23.380;2024-02-04T06:45:57;143820.59;;;9.03;77.14
8280;BME280;8335;42.646;23.380;2024-02-04T06:48:24;143849.16;;;9.15;77.08
8280;BME280;8335;42.646;23.380;2024-02-04T06:50:51;143870.25;;;9.23;76.56
8280;BME280;8335;42.646;23.380;2024-02-04T06:53:17;143890.13;;;9.31;76.40
8280;BME280;8335;42.646;23.380;2024-02-04T06:55:45;143927.38;;;9.47;75.66
8280;BME280;8335;42.646;23.380;2024-02-04T06:58:12;143941.06;;;9.52;75.44
8280;BME280;8335;42.646;23.380;2024-02-04T07:00:39;143957.19;;;9.59;74.99
8280;BME280;8335;42.646;23.380;2024-02-04T07:03:06;143977.06;;;9.67;74.62
8280;BME280;8335;42.646;23.380;2024-02-04T07:05:33;143965.88;;;9.62;74.75
8280;BME280;8335;42.646;23.380;2024-02-04T07:07:59;143972.13;;;9.65;74.65
8280;BME280;8335;42.646;23.380;2024-02-04T07:10:26;143985.75;;;9.71;74.30
8280;BME280;8335;42.646;23.380;2024-02-04T07:12:54;143969.59;;;9.64;74.04
8280;BME280;8335;42.646;23.380;2024-02-04T07:15:21;143991.97;;;9.73;73.71
8280;BME280;8335;42.646;23.380;2024-02-04T07:17:47;144004.38;;;9.78;73.45
8280;BME280;8335;42.646;23.380;2024-02-04T07:20:14;144018.06;;;9.84;73.26
8280;BME280;8335;42.646;23.380;2024-02-04T07:22:41;144057.84;;;10.00;72.81
8280;BME280;8335;42.646;23.380;2024-02-04T07:25:08;144073.94;;;10.07;72.15
8280;BME280;8335;42.646;23.380;2024-02-04T07:27:35;144100.06;;;10.17;71.38
8280;BME280;8335;42.646;23.380;2024-02-04T07:30:05;144097.59;;;10.16;71.99
8280;BME280;8335;42.646;23.380;2024-02-04T07:32:31;144096.34;;;10.16;71.78
8280;BME280;8335;42.646;23.380;2024-02-04T07:34:59;144118.75;;;10.25;71.32
8280;BME280;8335;42.646;23.380;2024-02-04T07:37:26;144126.19;;;10.28;71.74
8280;BME280;8335;42.646;23.380;2024-02-04T07:39:53;144131.19;;;10.30;71.29
8280;BME280;8335;42.646;23.380;2024-02-04T07:42:19;144126.19;;;10.28;71.06
8280;BME280;8335;42.646;23.380;2024-02-04T07:44:47;144156.03;;;10.40;70.64
8280;BME280;8335;42.646;23.380;2024-02-04T07:47:15;144146.13;;;10.36;70.57
8280;BME280;8335;42.646;23.380;2024-02-04T07:49:42;144170.97;;;10.46;69.78
8280;BME280;8335;42.646;23.380;2024-02-04T07:52:08;144157.28;;;10.41;69.49
8280;BME280;8335;42.646;23.380;2024-02-04T07:54:35;144172.19;;;10.47;69.05
8280;BME280;8335;42.646;23.380;2024-02-04T07:57:02;144162.28;;;10.43;69.23
8280;BME280;8335;42.646;23.380;2024-02-04T07:59:29;144173.44;;;10.47;69.43
8280;BME280;8335;42.646;23.380;2024-02-04T08:01:55;144216.97;;;10.65;68.47
8280;BME280;8335;42.646;23.380;2024-02-04T08:04:23;144322.66;;;11.09;67.44
8280;BME280;8335;42.646;23.380;2024-02-04T08:06:50;144464.44;;;11.67;65.86
8280;BME280;8335;42.646;23.380;2024-02-04T08:09:18;144592.66;;;12.19;62.50
8280;BME280;8335;42.646;23.380;2024-02-04T08:11:44;144643.72;;;12.40;60.80
8280;BME280;8335;42.646;23.380;2024-02-04T08:14:11;144643.72;;;12.40;60.45
8280;BME280;8335;42.646;23.380;2024-02-04T08:16:39;144647.44;;;12.42;60.41
8280;BME280;8335;42.646;23.380;2024-02-04T08:19:08;144666.09;;;12.49;59.74
8280;BME280;8335;42.646;23.380;2024-02-04T08:21:36;144677.31;;;12.54;59.65
8280;BME280;8335;42.646;23.380;2024-02-04T08:24:02;144750.78;;;12.84;58.73
8280;BME280;8335;42.646;23.380;2024-02-04T08:26:29;144848.00;;;13.24;56.91
8280;BME280;8335;42.646;23.380;2024-02-04T08:28:56;144991.28;;;13.82;55.33
8280;BME280;8335;42.646;23.380;2024-02-04T08:31:22;145149.66;;;14.47;53.53
8280;BME280;8335;42.646;23.380;2024-02-04T08:33:49;145270.66;;;14.96;51.38
8280;BME280;8335;42.646;23.380;2024-02-04T08:36:16;145301.84;;;15.09;50.79
8280;BME280;8335;42.646;23.380;2024-02-04T08:38:44;145233.22;;;14.81;50.73
8280;BME280;8335;42.646;23.380;2024-02-04T08:41:11;145249.44;;;14.88;51.18
8280;BME280;8335;42.646;23.380;2024-02-04T08:43:37;145271.88;;;14.97;50.76
8280;BME280;8335;42.646;23.380;2024-02-04T08:46:05;145241.94;;;14.84;50.35
8280;BME280;8335;42.646;23.380;2024-02-04T08:48:31;145193.34;;;14.65;51.04
8280;BME280;8335;42.646;23.380;2024-02-04T08:50:58;145117.19;;;14.33;51.61
8280;BME280;8335;42.646;23.380;2024-02-04T08:53:25;145097.25;;;14.25;52.82
8280;BME280;8335;42.646;23.380;2024-02-04T08:55:53;145086.00;;;14.21;51.85
8280;BME280;8335;42.646;23.380;2024-02-04T08:58:19;145103.47;;;14.28;52.49
8280;BME280;8335;42.646;23.380;2024-02-04T09:00:46;145149.66;;;14.47;51.80
8280;BME280;8335;42.646;23.380;2024-02-04T09:03:13;145178.38;;;14.58;51.03
8280;BME280;8335;42.646;23.380;2024-02-04T09:05:39;145147.19;;;14.46;51.59
8280;BME280;8335;42.646;23.380;2024-02-04T09:08:06;145179.59;;;14.59;51.21
8280;BME280;8335;42.646;23.380;2024-02-04T09:10:33;145207.00;;;14.70;50.95
8280;BME280;8335;42.646;23.380;2024-02-04T09:13:01;145217.00;;;14.74;51.12
8280;BME280;8335;42.646;23.380;2024-02-04T09:15:28;145189.56;;;14.63;51.02
8280;BME280;8335;42.646;23.380;2024-02-04T09:17:54;145123.44;;;14.36;51.58
8280;BME280;8335;42.646;23.380;2024-02-04T09:20:21;145089.78;;;14.22;52.04
8280;BME280;8335;42.646;23.380;2024-02-04T09:22:48;144981.31;;;13.78;53.13
8280;BME280;8335;42.646;23.380;2024-02-04T09:25:14;144922.75;;;13.54;53.71
8280;BME280;8335;42.646;23.380;2024-02-04T09:27:41;144885.38;;;13.39;54.45
8280;BME280;8335;42.646;23.380;2024-02-04T09:30:10;144773.22;;;12.93;56.02
8280;BME280;8335;42.646;23.380;2024-02-04T09:32:37;144708.47;;;12.66;57.30
8280;BME280;8335;42.646;23.380;2024-02-04T09:35:04;144585.22;;;12.16;58.92
8280;BME280;8335;42.646;23.380;2024-02-04T09:37:31;144534.19;;;11.95;59.85
8280;BME280;8335;42.646;23.380;2024-02-04T09:39:58;144513.03;;;11.87;60.83
8280;BME280;8335;42.646;23.380;2024-02-04T09:42:24;144521.72;;;11.90;61.16
8280;BME280;8335;42.646;23.380;2024-02-04T09:44:53;144513.03;;;11.87;61.61
8280;BME280;8335;42.646;23.380;2024-02-04T09:47:21;144511.81;;;11.86;62.03
8280;BME280;8335;42.646;23.380;2024-02-04T09:49:48;144490.56;;;11.77;62.41
8280;BME280;8335;42.646;23.380;2024-02-04T09:52:18;144473.16;;;11.70;63.49
8280;BME280;8335;42.646;23.380;2024-02-04T09:54:48;144501.81;;;11.82;63.04
8280;BME280;8335;42.646;23.380;2024-02-04T09:57:16;144506.78;;;11.84;62.64
8280;BME280;8335;42.646;23.380;2024-02-04T09:59:44;144470.66;;;11.69;63.04
8280;BME280;8335;42.646;23.380;2024-02-04T10:02:13;144474.38;;;11.71;63.24
8280;BME280;8335;42.646;23.380;2024-02-04T10:04:41;144491.81;;;11.78;63.62
8280;BME280;8335;42.646;23.380;2024-02-04T10:07:07;144468.19;;;11.68;64.20
8280;BME280;8335;42.646;23.380;2024-02-04T10:09:34;144470.66;;;11.69;64.24
8280;BME280;8335;42.646;23.380;2024-02-04T10:12:01;144459.50;;;11.65;64.20
8280;BME280;8335;42.646;23.380;2024-02-04T10:14:28;144460.72;;;11.65;64.97
8280;BME280;8335;42.646;23.380;2024-02-04T10:16:55;144484.34;;;11.75;65.09
8280;BME280;8335;42.646;23.380;2024-02-04T10:19:24;144500.59;;;11.81;65.16
8280;BME280;8335;42.646;23.380;2024-02-04T10:21:59;144524.22;;;11.91;65.13
8280;BME280;8335;42.646;23.380;2024-02-04T10:24:26;144520.47;;;11.90;65.36
8280;BME280;8335;42.646;23.380;2024-02-04T10:26:53;144509.28;;;11.85;65.73
8280;BME280;8335;42.646;23.380;2024-02-04T10:29:21;144499.34;;;11.81;65.57
8280;BME280;8335;42.646;23.380;2024-02-04T10:31:48;144461.97;;;11.66;66.67
8280;BME280;8335;42.646;23.380;2024-02-04T10:34:15;144483.13;;;11.74;66.46
8280;BME280;8335;42.646;23.380;2024-02-04T10:36:41;144504.31;;;11.83;65.97
8280;BME280;8335;42.646;23.380;2024-02-04T10:39:09;144501.81;;;11.82;66.56
8280;BME280;8335;42.646;23.380;2024-02-04T10:41:42;144519.25;;;11.89;66.46
8280;BME280;8335;42.646;23.380;2024-02-04T10:44:11;144515.53;;;11.88;66.59
8280;BME280;8335;42.646;23.380;2024-02-04T10:46:40;144525.44;;;11.92;66.70
8280;BME280;8335;42.646;23.380;2024-02-04T10:49:10;144513.03;;;11.87;66.48
8280;BME280;8335;42.646;23.380;2024-02-04T10:51:41;144499.34;;;11.81;66.98
8280;BME280;8335;42.646;23.380;2024-02-04T10:54:09;144511.81;;;11.86;67.07
8280;BME280;8335;42.646;23.380;2024-02-04T10:56:38;144534.19;;;11.95;66.11
8280;BME280;8335;42.646;23.380;2024-02-04T10:59:07;144510.50;;;11.85;66.64
8280;BME280;8335;42.646;23.380;2024-02-04T11:01:38;144483.13;;;11.74;67.08
8280;BME280;8335;42.646;23.380;2024-02-04T11:04:05;144474.38;;;11.71;66.69
8280;BME280;8335;42.646;23.380;2024-02-04T11:06:33;144481.88;;;11.74;67.11
8280;BME280;8335;42.646;23.380;2024-02-04T11:09:00;144465.69;;;11.67;66.54
8280;BME280;8335;42.646;23.380;2024-02-04T11:11:29;144496.81;;;11.80;66.83
8280;BME280;8335;42.646;23.380;2024-02-04T11:13:58;144504.31;;;11.83;66.42
8280;BME280;8335;42.646;23.380;2024-02-04T11:16:35;144505.53;;;11.83;66.72
8280;BME280;8335;42.646;23.380;2024-02-04T11:19:20;144534.19;;;11.95;65.63
8280;BME280;8335;42.646;23.380;2024-02-04T11:22:11;144519.25;;;11.89;65.88
8280;BME280;8335;42.646;23.380;2024-02-04T11:24:59;144578.97;;;12.13;65.88
8280;BME280;8335;42.646;23.380;2024-02-04T11:27:31;144656.19;;;12.45;64.15
8280;BME280;8335;42.646;23.380;2024-02-04T11:29:58;144737.06;;;12.78;63.84
8280;BME280;8335;42.646;23.380;2024-02-04T11:32:25;144816.81;;;13.11;61.75
8280;BME280;8335;42.646;23.380;2024-02-04T11:34:52;144786.91;;;12.99;61.83
8280;BME280;8335;42.646;23.380;2024-02-04T11:37:20;144745.81;;;12.82;62.68
8280;BME280;8335;42.646;23.380;2024-02-04T11:39:50;144725.91;;;12.74;62.20
8280;BME280;8335;42.646;23.380;2024-02-04T11:42:17;144689.78;;;12.59;62.35
8280;BME280;8335;42.646;23.380;2024-02-04T11:44:47;144679.81;;;12.55;62.80
8280;BME280;8335;42.646;23.380;2024-02-04T11:47:22;144672.38;;;12.52;63.33
8280;BME280;8335;42.646;23.380;2024-02-04T11:49:53;144692.28;;;12.60;63.15
8280;BME280;8335;42.646;23.380;2024-02-04T11:52:20;144714.69;;;12.69;62.58
8280;BME280;8335;42.646;23.380;2024-02-04T11:54:47;144693.53;;;12.60;63.03
8280;BME280;8335;42.646;23.380;2024-02-04T11:57:14;144708.47;;;12.66;62.93
8280;BME280;8335;42.646;23.380;2024-02-04T11:59:42;144738.38;;;12.79;62.60
8280;BME280;8335;42.646;23.380;2024-02-04T12:02:11;144769.47;;;12.91;62.20
8280;BME280;8335;42.646;23.380;2024-02-04T12:04:38;144825.50;;;13.14;61.66
8280;BME280;8335;42.646;23.380;2024-02-04T12:07:06;144865.44;;;13.31;60.84
8280;BME280;8335;42.646;23.380;2024-02-04T12:09:34;144907.78;;;13.48;60.57
8280;BME280;8335;42.646;23.380;2024-02-04T12:12:02;144922.75;;;13.54;59.09
8280;BME280;8335;42.646;23.380;2024-02-04T12:14:29;144922.75;;;13.54;59.53
8280;BME280;8335;42.646;23.380;2024-02-04T12:16:56;144937.72;;;13.60;59.70
8280;BME280;8335;42.646;23.380;2024-02-04T12:19:26;144967.63;;;13.72;58.88
8280;BME280;8335;42.646;23.380;2024-02-04T12:21:53;144980.06;;;13.77;58.69
8280;BME280;8335;42.646;23.380;2024-02-04T12:24:20;145026.19;;;13.96;58.06
8280;BME280;8335;42.646;23.380;2024-02-04T12:26:48;145011.22;;;13.90;57.68
8280;BME280;8335;42.646;23.380;2024-02-04T12:29:14;145017.44;;;13.93;57.05
8280;BME280;8335;42.646;23.380;2024-02-04T12:31:41;145033.66;;;13.99;56.98
8280;BME280;8335;42.646;23.380;2024-02-04T12:34:08;145018.72;;;13.93;57.51
8280;BME280;8335;42.646;23.380;2024-02-04T12:36:37;145058.59;;;14.10;57.11
8280;BME280;8335;42.646;23.380;2024-02-04T12:39:04;145068.56;;;14.14;57.13
8280;BME280;8335;42.646;23.380;2024-02-04T12:41:35;145012.47;;;13.91;56.96
8280;BME280;8335;42.646;23.380;2024-02-04T12:44:01;145062.34;;;14.11;56.84
8280;BME280;8335;42.646;23.380;2024-02-04T12:46:30;145042.41;;;14.03;56.40
8280;BME280;8335;42.646;23.380;2024-02-04T12:48:58;144887.84;;;13.40;56.50
8280;BME280;8335;42.646;23.380;2024-02-04T12:51:25;144996.25;;;13.84;56.61
8280;BME280;8335;42.646;23.380;2024-02-04T12:54:04;145018.72;;;13.93;56.22
8280;BME280;8335;42.646;23.380;2024-02-04T12:56:40;145031.16;;;13.98;56.05
8280;BME280;8335;42.646;23.380;2024-02-04T12:59:07;145022.47;;;13.95;55.42
8280;BME280;8335;42.646;23.380;2024-02-04T13:01:35;144998.75;;;13.85;55.68
8280;BME280;8335;42.646;23.380;2024-02-04T13:04:01;144981.31;;;13.78;55.89
8280;BME280;8335;42.646;23.380;2024-02-04T13:06:28;144931.50;;;13.58;56.79
8280;BME280;8335;42.646;23.380;2024-02-04T13:08:55;144938.94;;;13.61;56.42